Time;durP1;ratioP1;P1;durP2;ratioP2;P2;SDS_P1;SDS_P2;PMS_P1;PMS_P2;Temp;Humidity;BMP_temperature;BMP_pressure;BME280_temperature;BME280_humidity;BME280_pressure;Samples;Min_cycle;Max_cycle;Signal;HPM_P1;HPM_P2
2023/05/07 00:01:40;;;;;;;1.73;1.63;;;14.50;99.90;;;;;;4914929;29;20206;-54
2023/05/07 00:04:09;;;;;;;1.13;1.03;;;14.50;99.90;;;;;;4912462;29;20203;-54
2023/05/07 00:06:36;;;;;;;1.63;1.50;;;14.60;99.90;;;;;;4916262;29;20199;-54
2023/05/07 00:09:04;;;;;;;1.50;1.20;;;14.50;99.90;;;;;;4914506;29;20261;-54
2023/05/07 00:11:31;;;;;;;1.37;1.27;;;14.50;99.90;;;;;;4909698;29;20648;-54
2023/05/07 00:13:58;;;;;;;1.63;1.10;;;14.50;99.90;;;;;;4913447;29;20205;-54
2023/05/07 00:16:24;;;;;;;1.90;1.40;;;14.60;99.90;;;;;;4914736;29;20215;-54
2023/05/07 00:18:51;;;;;;;2.30;2.10;;;14.60;99.90;;;;;;4916289;29;20266;-54
2023/05/07 00:21:21;;;;;;;1.93;1.80;;;14.70;99.90;;;;;;4914637;29;20744;-54
2023/05/07 00:23:48;;;;;;;1.87;1.87;;;14.70;99.90;;;;;;4915857;29;20696;-54
2023/05/07 00:26:15;;;;;;;1.40;1.40;;;14.60;99.90;;;;;;4916149;29;20207;-54
2023/05/07 00:28:42;;;;;;;1.00;1.00;;;14.60;99.90;;;;;;4914274;29;20230;-54
2023/05/07 00:31:09;;;;;;;4.20;1.20;;;14.70;99.90;;;;;;4911618;29;20203;-54
2023/05/07 00:33:36;;;;;;;1.13;1.00;;;14.70;99.90;;;;;;4915883;29;20202;-54
2023/05/07 00:36:03;;;;;;;0.70;0.70;;;14.70;99.90;;;;;;4916016;29;20577;-54
2023/05/07 00:38:31;;;;;;;0.70;0.70;;;14.70;99.90;;;;;;4915843;29;20800;-54
2023/05/07 00:40:58;;;;;;;0.60;0.60;;;14.60;99.90;;;;;;4914741;29;20756;-54
2023/05/07 00:43:25;;;;;;;0.67;0.67;;;14.60;99.90;;;;;;4909030;29;20724;-54
2023/05/07 00:45:52;;;;;;;1.10;0.73;;;14.60;99.90;;;;;;4916048;29;20202;-54
2023/05/07 00:48:20;;;;;;;0.93;0.80;;;14.70;99.90;;;;;;4915663;29;20641;-54
2023/05/07 00:50:48;;;;;;;0.63;0.63;;;14.80;99.90;;;;;;4913843;29;20261;-54
2023/05/07 00:53:15;;;;;;;1.40;0.63;;;14.80;99.90;;;;;;4919311;29;20202;-54
2023/05/07 00:55:43;;;;;;;1.90;0.60;;;14.80;99.90;;;;;;4918675;29;20238;-54
2023/05/07 00:58:10;;;;;;;0.50;0.50;;;14.80;99.90;;;;;;4915675;29;20218;-54
2023/05/07 01:00:37;;;;;;;0.50;0.50;;;14.90;99.90;;;;;;4914305;29;20277;-54
2023/05/07 01:03:05;;;;;;;1.70;0.87;;;14.90;99.90;;;;;;4915371;29;20254;-54
2023/05/07 01:05:32;;;;;;;2.73;0.90;;;14.80;99.90;;;;;;4915593;29;20257;-54
2023/05/07 01:08:00;;;;;;;0.60;0.60;;;14.80;99.90;;;;;;4911956;29;20230;-54
2023/05/07 01:10:30;;;;;;;0.67;0.67;;;14.90;99.90;;;;;;4913904;29;20206;-54
2023/05/07 01:13:00;;;;;;;0.53;0.50;;;14.80;99.90;;;;;;4915356;29;20205;-54
2023/05/07 01:15:27;;;;;;;0.73;0.67;;;14.80;99.90;;;;;;4915915;29;20213;-54
2023/05/07 01:17:54;;;;;;;1.07;0.70;;;14.80;99.90;;;;;;4915667;29;20222;-54
2023/05/07 01:20:21;;;;;;;1.30;0.90;;;14.90;99.90;;;;;;4908673;29;20749;-54
2023/05/07 01:22:50;;;;;;;0.80;0.80;;;14.80;99.90;;;;;;4909777;29;20246;-54
2023/05/07 01:25:18;;;;;;;0.70;0.60;;;14.80;99.90;;;;;;4915317;29;20262;-53
2023/05/07 01:27:45;;;;;;;0.70;0.70;;;14.80;99.90;;;;;;4915478;29;20222;-54
2023/05/07 01:30:13;;;;;;;4.73;2.23;;;14.80;99.90;;;;;;4913315;29;20209;-54
2023/05/07 01:32:44;;;;;;;0.93;0.93;;;14.80;99.90;;;;;;4905693;29;20211;-54
2023/05/07 01:35:16;;;;;;;3.03;1.53;;;14.80;99.90;;;;;;4912878;29;20203;-54
2023/05/07 01:37:44;;;;;;;2.60;1.37;;;14.70;99.90;;;;;;4912963;29;20645;-54
2023/05/07 01:40:12;;;;;;;2.33;1.27;;;14.70;99.90;;;;;;4915153;29;20548;-54
2023/05/07 01:42:40;;;;;;;0.97;0.93;;;14.70;99.90;;;;;;4915195;29;20274;-54
2023/05/07 01:45:08;;;;;;;0.57;0.57;;;14.70;99.90;;;;;;4913898;29;20207;-54
2023/05/07 01:47:38;;;;;;;0.90;0.90;;;14.60;99.90;;;;;;4904978;29;20199;-54
2023/05/07 01:50:07;;;;;;;0.70;0.70;;;14.60;99.90;;;;;;4915632;29;20195;-54
2023/05/07 01:52:35;;;;;;;2.20;1.17;;;14.60;99.90;;;;;;4918744;29;20220;-54
2023/05/07 01:55:02;;;;;;;7.63;0.60;;;14.50;99.90;;;;;;4919147;29;20203;-54
2023/05/07 01:57:34;;;;;;;2.73;0.80;;;14.50;99.90;;;;;;4913721;29;20661;-54
2023/05/07 02:00:00;;;;;;;0.60;0.60;;;14.50;99.90;;;;;;4918653;29;20740;-54
2023/05/07 02:02:30;;;;;;;0.70;0.70;;;14.40;99.90;;;;;;4918655;29;20207;-54
2023/05/07 02:04:58;;;;;;;2.87;1.13;;;14.40;99.90;;;;;;4918679;29;20743;-54
2023/05/07 02:07:25;;;;;;;1.20;1.20;;;14.40;99.90;;;;;;4917134;29;20203;-54
2023/05/07 02:09:52;;;;;;;1.23;0.63;;;14.40;99.90;;;;;;4915501;29;20250;-54
2023/05/07 02:12:19;;;;;;;1.03;0.60;;;14.40;99.90;;;;;;4918431;29;20199;-54
2023/05/07 02:14:47;;;;;;;0.77;0.70;;;14.40;99.90;;;;;;4918513;29;20202;-54
2023/05/07 02:17:14;;;;;;;1.80;0.43;;;14.50;99.90;;;;;;4915046;29;20203;-54
2023/05/07 02:19:41;;;;;;;2.63;1.10;;;14.50;99.90;;;;;;4918684;29;20242;-54
2023/05/07 02:22:08;;;;;;;2.80;0.77;;;14.50;99.90;;;;;;4916460;29;20211;-54
2023/05/07 02:24:35;;;;;;;0.97;0.57;;;14.40;99.90;;;;;;4918079;29;20198;-54
2023/05/07 02:27:03;;;;;;;0.67;0.67;;;14.40;99.90;;;;;;4915454;29;20210;-54
2023/05/07 02:29:29;;;;;;;0.80;0.70;;;14.30;99.90;;;;;;4915547;29;20222;-54
2023/05/07 02:31:58;;;;;;;0.50;0.50;;;14.30;99.90;;;;;;4916844;29;20757;-54
2023/05/07 02:34:25;;;;;;;0.90;0.90;;;14.20;99.90;;;;;;4915184;29;20669;-54
2023/05/07 02:36:52;;;;;;;0.70;0.70;;;14.10;99.90;;;;;;4914310;29;20203;-54
2023/05/07 02:39:19;;;;;;;0.70;0.70;;;14.10;99.90;;;;;;4917158;29;20228;-54
2023/05/07 02:41:46;;;;;;;0.70;0.70;;;14.00;99.90;;;;;;4918544;29;20201;-54
2023/05/07 02:44:12;;;;;;;1.07;0.87;;;14.00;99.90;;;;;;4916606;29;20199;-54
2023/05/07 02:46:39;;;;;;;0.80;0.80;;;14.00;99.90;;;;;;4914938;29;20199;-54
2023/05/07 02:49:08;;;;;;;1.00;0.70;;;14.00;99.90;;;;;;4916380;29;20258;-54
2023/05/07 02:51:35;;;;;;;0.90;0.90;;;14.00;99.90;;;;;;4917275;29;20250;-54
2023/05/07 02:54:02;;;;;;;1.67;0.93;;;13.90;99.90;;;;;;4917140;29;20207;-54
2023/05/07 02:56:28;;;;;;;1.00;1.00;;;13.90;99.90;;;;;;4917282;29;20738;-53
2023/05/07 02:58:56;;;;;;;2.60;1.27;;;13.90;99.90;;;;;;4911422;29;20222;-54
2023/05/07 03:01:23;;;;;;;3.20;1.27;;;13.80;99.90;;;;;;4917300;29;20202;-54
2023/05/07 03:03:50;;;;;;;2.63;1.03;;;13.70;99.90;;;;;;4916836;29;20194;-53
2023/05/07 03:06:18;;;;;;;2.00;0.90;;;13.70;99.90;;;;;;4913279;29;20720;-53
2023/05/07 03:08:45;;;;;;;1.60;1.13;;;13.70;99.90;;;;;;4912708;29;20226;-54
2023/05/07 03:11:12;;;;;;;0.80;0.80;;;13.70;99.90;;;;;;4928724;29;20202;-54
2023/05/07 03:13:39;;;;;;;0.83;0.80;;;13.60;99.90;;;;;;4934618;29;20206;-53
2023/05/07 03:16:07;;;;;;;1.30;0.90;;;13.60;99.90;;;;;;4913178;29;20198;-54
2023/05/07 03:18:33;;;;;;;0.83;0.77;;;13.60;99.90;;;;;;4914985;29;20214;-54
2023/05/07 03:21:00;;;;;;;3.70;1.07;;;13.60;99.90;;;;;;4916652;29;20278;-54
2023/05/07 03:23:29;;;;;;;0.60;0.60;;;13.60;99.90;;;;;;4916419;29;20258;-54
2023/05/07 03:25:56;;;;;;;2.97;0.80;;;13.60;99.90;;;;;;4916500;29;20270;-53
2023/05/07 03:28:23;;;;;;;1.00;1.00;;;13.50;99.90;;;;;;4911691;29;20585;-53
2023/05/07 03:30:50;;;;;;;4.63;0.70;;;13.60;99.90;;;;;;4928943;29;20194;-54
2023/05/07 03:33:17;;;;;;;1.00;1.00;;;13.50;99.90;;;;;;4934177;29;20206;-54
2023/05/07 03:35:44;;;;;;;0.93;0.87;;;13.50;99.90;;;;;;4934102;29;20205;-54
2023/05/07 03:38:11;;;;;;;3.07;0.80;;;13.50;99.90;;;;;;4916055;29;20270;-54
2023/05/07 03:40:39;;;;;;;2.00;0.80;;;13.50;99.90;;;;;;4912561;29;20565;-54
2023/05/07 03:43:06;;;;;;;1.70;1.00;;;13.50;99.90;;;;;;4916179;29;20202;-54
2023/05/07 03:45:33;;;;;;;1.03;0.70;;;13.50;99.90;;;;;;4915556;29;20740;-54
2023/05/07 03:48:00;;;;;;;0.73;0.50;;;13.50;99.90;;;;;;4913022;29;20223;-54
2023/05/07 03:50:27;;;;;;;0.67;0.60;;;13.50;99.90;;;;;;4923636;29;20306;-54
2023/05/07 03:52:54;;;;;;;1.40;0.80;;;13.40;99.90;;;;;;4915754;29;20210;-54
2023/05/07 03:55:21;;;;;;;0.80;0.80;;;13.40;99.90;;;;;;4916109;29;20202;-54
2023/05/07 03:57:50;;;;;;;1.37;0.70;;;13.40;99.90;;;;;;4913442;29;20282;-54
2023/05/07 04:00:17;;;;;;;2.17;1.43;;;13.40;99.90;;;;;;4914500;29;20604;-54
2023/05/07 04:02:44;;;;;;;1.70;0.70;;;13.40;99.90;;;;;;4910565;29;20638;-54
2023/05/07 04:05:11;;;;;;;0.83;0.63;;;13.40;99.90;;;;;;4915745;29;20687;-53
2023/05/07 04:07:38;;;;;;;0.90;0.90;;;13.30;99.90;;;;;;4913810;29;20222;-54
2023/05/07 04:10:06;;;;;;;0.70;0.70;;;13.30;99.90;;;;;;4915457;29;20226;-54
2023/05/07 04:12:33;;;;;;;0.80;0.80;;;13.40;99.90;;;;;;4915740;29;20207;-54
2023/05/07 04:15:01;;;;;;;1.83;1.10;;;13.40;99.90;;;;;;4915709;29;20554;-54
2023/05/07 04:17:31;;;;;;;1.40;1.40;;;13.40;99.90;;;;;;4913370;29;20206;-53
2023/05/07 04:19:58;;;;;;;1.33;1.30;;;13.40;99.90;;;;;;4918668;29;20190;-54
2023/05/07 04:22:25;;;;;;;1.20;1.10;;;13.40;99.90;;;;;;4933315;29;20565;-54
2023/05/07 04:24:52;;;;;;;1.90;1.43;;;13.40;99.90;;;;;;4933466;29;20253;-54
2023/05/07 04:27:20;;;;;;;0.80;0.80;;;13.50;99.90;;;;;;4927243;29;20807;-53
2023/05/07 04:29:47;;;;;;;1.23;1.13;;;13.50;99.90;;;;;;4911715;29;20222;-53
2023/05/07 04:32:15;;;;;;;1.40;1.30;;;13.50;99.90;;;;;;4915877;29;20677;-53
2023/05/07 04:34:42;;;;;;;4.50;1.10;;;13.50;99.90;;;;;;4913513;29;20209;-53
2023/05/07 04:37:10;;;;;;;1.20;1.13;;;13.50;99.90;;;;;;4909996;29;20250;-53
2023/05/07 04:39:37;;;;;;;1.40;1.30;;;13.50;99.90;;;;;;4915204;29;20215;-54
2023/05/07 04:42:04;;;;;;;1.33;1.00;;;13.60;99.90;;;;;;4915343;29;20306;-54
2023/05/07 04:44:31;;;;;;;1.70;1.17;;;13.70;99.90;;;;;;4915025;29;20258;-54
2023/05/07 04:46:58;;;;;;;2.47;1.10;;;13.70;99.90;;;;;;4909930;29;20224;-53
2023/05/07 04:49:27;;;;;;;1.50;1.40;;;13.80;99.90;;;;;;4909839;29;20305;-54
2023/05/07 04:51:54;;;;;;;2.83;1.43;;;13.90;99.90;;;;;;4913096;29;20207;-54
2023/05/07 04:54:21;;;;;;;1.53;1.53;;;14.10;99.90;;;;;;4914926;29;20205;-54
2023/05/07 04:56:47;;;;;;;1.00;1.00;;;14.40;99.90;;;;;;4911442;29;20294;-54
2023/05/07 04:59:14;;;;;;;1.73;1.37;;;14.80;99.90;;;;;;4912361;29;20241;-54
2023/05/07 05:01:41;;;;;;;1.33;1.23;;;15.30;99.90;;;;;;4914875;29;20202;-54
2023/05/07 05:04:08;;;;;;;3.33;1.37;;;15.90;99.90;;;;;;4915018;29;20344;-53
2023/05/07 05:06:37;;;;;;;1.27;1.27;;;16.60;99.90;;;;;;4911304;29;20201;-54
2023/05/07 05:09:04;;;;;;;1.57;1.10;;;17.40;99.90;;;;;;4911244;29;20227;-54
2023/05/07 05:11:31;;;;;;;1.50;1.40;;;18.10;99.90;;;;;;4913398;29;20249;-54
2023/05/07 05:14:00;;;;;;;2.40;1.37;;;18.60;99.90;;;;;;4914506;29;20199;-54
2023/05/07 05:16:27;;;;;;;2.83;1.30;;;18.90;99.90;;;;;;4911228;29;20206;-55
2023/05/07 05:18:54;;;;;;;1.43;1.20;;;18.80;99.90;;;;;;4911019;29;20254;-54
2023/05/07 05:21:22;;;;;;;1.50;1.50;;;19.20;99.90;;;;;;4914346;29;20202;-54
2023/05/07 05:23:50;;;;;;;3.60;1.20;;;19.50;99.90;;;;;;4914621;29;20194;-54
2023/05/07 05:26:17;;;;;;;0.87;0.87;;;19.60;99.90;;;;;;4918543;23;20246;-61
2023/05/07 05:28:44;;;;;;;1.70;0.83;;;19.80;99.90;;;;;;4895645;29;20203;-60
2023/05/07 05:31:11;;;;;;;1.00;1.00;;;20.10;99.90;;;;;;4898019;29;20760;-61
2023/05/07 05:33:38;;;;;;;0.73;0.60;;;20.30;99.90;;;;;;4896071;29;20198;-60
2023/05/07 05:36:06;;;;;;;1.47;1.47;;;20.50;99.90;;;;;;4896269;29;20219;-61
2023/05/07 05:38:33;;;;;;;1.43;0.70;;;20.60;99.90;;;;;;4893389;29;20207;-60
2023/05/07 05:41:01;;;;;;;1.07;0.90;;;20.80;99.90;;;;;;4899426;29;20222;-61
2023/05/07 05:43:28;;;;;;;0.70;0.70;;;20.80;99.90;;;;;;4896058;29;20211;-61
2023/05/07 05:45:56;;;;;;;0.87;0.70;;;20.70;99.90;;;;;;4896045;29;20219;-61
2023/05/07 05:48:23;;;;;;;1.63;0.60;;;21.10;99.90;;;;;;4892753;29;20218;-61
2023/05/07 05:50:50;;;;;;;1.23;0.70;;;21.40;99.90;;;;;;4900640;29;20259;-61
2023/05/07 05:53:17;;;;;;;0.60;0.60;;;21.40;99.90;;;;;;4895896;29;20271;-60
2023/05/07 05:55:44;;;;;;;1.23;1.17;;;21.50;99.90;;;;;;4895875;29;20256;-61
2023/05/07 05:58:13;;;;;;;1.00;0.73;;;21.50;99.90;;;;;;4894471;29;20208;-61
2023/05/07 06:00:40;;;;;;;1.60;0.70;;;21.50;99.90;;;;;;4901840;29;20204;-61
2023/05/07 06:03:07;;;;;;;0.63;0.63;;;22.10;99.90;;;;;;4895866;29;20255;-61
2023/05/07 06:05:34;;;;;;;0.50;0.50;;;22.30;99.90;;;;;;4895833;29;20812;-61
2023/05/07 06:08:01;;;;;;;0.70;0.50;;;22.50;99.90;;;;;;4896033;29;20263;-61
2023/05/07 06:10:28;;;;;;;1.23;0.50;;;22.80;99.90;;;;;;4898471;29;20294;-61
2023/05/07 06:12:55;;;;;;;0.50;0.50;;;23.40;99.90;;;;;;4908755;29;20251;-61
2023/05/07 06:15:23;;;;;;;1.10;0.60;;;22.50;99.90;;;;;;4913156;29;20775;-61
2023/05/07 06:17:50;;;;;;;1.70;0.97;;;21.90;99.90;;;;;;4897613;29;20211;-61
2023/05/07 06:20:17;;;;;;;0.87;0.40;;;21.50;99.90;;;;;;4897712;29;20199;-60
2023/05/07 06:22:48;;;;;;;1.77;0.45;;;20.90;99.90;;;;;;4893000;29;20805;-61
2023/05/07 06:25:15;;;;;;;1.30;0.50;;;20.50;99.90;;;;;;4891211;29;20227;-61
2023/05/07 06:27:42;;;;;;;0.60;0.60;;;20.50;99.90;;;;;;4895766;29;20204;-62
2023/05/07 06:30:09;;;;;;;0.57;0.40;;;20.50;99.90;;;;;;4897167;29;20215;-61
2023/05/07 06:32:38;;;;;;;0.60;0.60;;;20.70;99.90;;;;;;4895198;29;20204;-61
2023/05/07 06:35:05;;;;;;;0.67;0.57;;;20.90;99.90;;;;;;4896565;29;20309;-62
2023/05/07 06:37:32;;;;;;;0.60;0.60;;;21.10;99.90;;;;;;4907044;29;20199;-62
2023/05/07 06:39:59;;;;;;;1.80;0.40;;;20.60;99.90;;;;;;4898035;29;20783;-63
2023/05/07 06:42:26;;;;;;;1.70;0.50;;;20.60;99.90;;;;;;4897002;29;20601;-61
2023/05/07 06:44:53;;;;;;;1.17;0.57;;;21.00;99.90;;;;;;4894296;29;20288;-61
2023/05/07 06:47:20;;;;;;;0.53;0.50;;;21.20;99.90;;;;;;4909790;29;20246;-61
2023/05/07 06:49:48;;;;;;;1.13;0.40;;;21.50;99.90;;;;;;4907327;29;20243;-61
2023/05/07 06:52:15;;;;;;;0.30;0.30;;;21.90;99.90;;;;;;4895434;29;20749;-61
2023/05/07 06:54:42;;;;;;;0.60;0.60;;;22.10;99.90;;;;;;4896493;29;20223;-61
2023/05/07 06:57:09;;;;;;;1.67;0.70;;;22.50;99.90;;;;;;4899158;29;20211;-62
2023/05/07 06:59:36;;;;;;;0.50;0.50;;;22.70;99.90;;;;;;4898810;29;20279;-62
2023/05/07 07:02:03;;;;;;;0.70;0.70;;;22.30;99.90;;;;;;4908541;29;20669;-61
2023/05/07 07:04:30;;;;;;;0.40;0.40;;;22.40;99.90;;;;;;4900624;29;20243;-61
2023/05/07 07:06:58;;;;;;;1.50;0.50;;;21.90;99.90;;;;;;4909377;29;20194;-61
2023/05/07 07:09:25;;;;;;;1.27;0.50;;;21.60;99.90;;;;;;4899943;29;20263;-61
2023/05/07 07:11:52;;;;;;;0.40;0.40;;;21.80;99.90;;;;;;4892633;29;20195;-60
2023/05/07 07:14:20;;;;;;;2.30;0.60;;;22.30;99.90;;;;;;4900332;29;20558;-61
2023/05/07 07:16:47;;;;;;;0.50;0.50;;;22.60;99.90;;;;;;4897245;29;20326;-62
2023/05/07 07:19:15;;;;;;;1.10;0.43;;;22.60;99.90;;;;;;4897437;29;20195;-61
2023/05/07 07:21:42;;;;;;;2.33;0.40;;;22.60;99.90;;;;;;4898741;29;20215;-61
2023/05/07 07:24:11;;;;;;;0.77;0.50;;;22.40;99.90;;;;;;4897891;29;20584;-61
2023/05/07 07:26:39;;;;;;;0.50;0.40;;;21.60;99.90;;;;;;4897085;29;20618;-61
2023/05/07 07:29:06;;;;;;;1.80;0.40;;;21.60;99.90;;;;;;4897196;29;20214;-61
2023/05/07 07:31:33;;;;;;;0.60;0.60;;;21.80;99.90;;;;;;4896957;29;20697;-61
2023/05/07 07:34:00;;;;;;;1.00;1.00;;;21.40;99.90;;;;;;4894683;29;20275;-61
2023/05/07 07:36:27;;;;;;;0.73;0.73;;;21.00;99.90;;;;;;4898017;29;20226;-62
2023/05/07 07:38:55;;;;;;;0.57;0.50;;;21.00;99.90;;;;;;4901268;29;20200;-61
2023/05/07 07:41:23;;;;;;;2.57;0.40;;;20.70;99.90;;;;;;4897301;29;20290;-61
2023/05/07 07:43:50;;;;;;;0.80;0.40;;;20.00;99.90;;;;;;4898094;29;20219;-61
2023/05/07 07:46:17;;;;;;;0.67;0.57;;;19.50;99.90;;;;;;4912410;29;21022;-61
2023/05/07 07:48:44;;;;;;;0.70;0.70;;;19.50;99.90;;;;;;4914461;29;20540;-61
2023/05/07 07:51:11;;;;;;;1.17;0.40;;;19.60;99.90;;;;;;4904835;29;20230;-65
2023/05/07 07:53:38;;;;;;;0.60;0.40;;;20.40;99.90;;;;;;4899055;29;20299;-61
2023/05/07 07:56:05;;;;;;;0.30;0.30;;;20.60;99.90;;;;;;4896825;29;20219;-63
2023/05/07 07:58:35;;;;;;;1.23;0.40;;;21.00;99.90;;;;;;4892504;29;20204;-60
2023/05/07 08:01:02;;;;;;;0.40;0.40;;;21.50;99.90;;;;;;4895747;29;20215;-61
2023/05/07 08:03:31;;;;;;;0.43;0.43;;;22.00;99.90;;;;;;4896063;29;20589;-61
2023/05/07 08:05:58;;;;;;;0.70;0.70;;;22.40;99.90;;;;;;4896571;29;20231;-60
2023/05/07 08:08:25;;;;;;;0.40;0.40;;;22.50;99.90;;;;;;4894807;29;20236;-60
2023/05/07 08:10:52;;;;;;;2.83;0.70;;;22.60;99.90;;;;;;4896534;29;20216;-60
2023/05/07 08:13:19;;;;;;;0.40;0.40;;;22.60;99.90;;;;;;4896900;29;20199;-60
2023/05/07 08:15:47;;;;;;;0.70;0.70;;;22.60;99.90;;;;;;4896818;29;20243;-59
2023/05/07 08:18:14;;;;;;;1.53;0.30;;;22.40;99.90;;;;;;4896291;29;20274;-60
2023/05/07 08:20:42;;;;;;;4.93;0.40;;;22.30;99.90;;;;;;4889289;29;20204;-60
2023/05/07 08:23:09;;;;;;;0.20;0.20;;;22.60;99.90;;;;;;4896585;29;20230;-60
2023/05/07 08:25:37;;;;;;;1.37;0.40;;;22.60;99.90;;;;;;4896931;29;20302;-60
2023/05/07 08:28:04;;;;;;;1.57;0.40;;;22.60;99.90;;;;;;4896763;29;20203;-60
2023/05/07 08:30:31;;;;;;;1.23;0.40;;;22.70;99.90;;;;;;4887999;29;20270;-60
2023/05/07 08:32:59;;;;;;;0.30;0.30;;;22.90;99.90;;;;;;4896250;29;20235;-60
2023/05/07 08:35:26;;;;;;;1.43;0.50;;;22.50;99.90;;;;;;4896750;29;20261;-60
2023/05/07 08:37:53;;;;;;;0.50;0.30;;;23.00;99.90;;;;;;4894297;29;20203;-60
2023/05/07 08:40:24;;;;;;;1.07;0.33;;;23.40;99.90;;;;;;4893780;29;20204;-61
2023/05/07 08:42:53;;;;;;;3.87;0.50;;;23.80;99.90;;;;;;4895873;29;20203;-61
2023/05/07 08:45:21;;;;;;;0.60;0.40;;;24.50;99.90;;;;;;4896088;29;20219;-61
2023/05/07 08:47:52;;;;;;;1.87;0.63;;;25.00;99.90;;;;;;4894019;29;20211;-61
2023/05/07 08:50:21;;;;;;;3.47;0.60;;;25.10;99.90;;;;;;4895259;29;20602;-61
2023/05/07 08:52:48;;;;;;;0.50;0.50;;;25.20;99.90;;;;;;4895532;29;20275;-61
2023/05/07 08:55:16;;;;;;;1.17;0.63;;;25.40;99.90;;;;;;4895992;29;20278;-61
2023/05/07 08:57:43;;;;;;;0.60;0.50;;;25.30;99.90;;;;;;4889640;29;20622;-61
2023/05/07 09:00:11;;;;;;;0.50;0.40;;;25.00;99.90;;;;;;4892252;29;20218;-61
2023/05/07 09:02:38;;;;;;;0.80;0.80;;;25.10;99.90;;;;;;4888154;29;20204;-61
2023/05/07 09:05:06;;;;;;;1.83;1.83;;;25.50;99.90;;;;;;4896080;29;20283;-61
2023/05/07 09:07:35;;;;;;;1.50;1.33;;;25.50;99.90;;;;;;4890547;29;20207;-61
2023/05/07 09:10:03;;;;;;;2.10;1.63;;;25.50;99.90;;;;;;4897611;29;20266;-61
2023/05/07 09:12:35;;;;;;;1.23;1.23;;;25.60;99.90;;;;;;4904354;29;20584;-61
2023/05/07 09:15:02;;;;;;;1.60;1.60;;;25.80;99.90;;;;;;4906528;29;20302;-61
2023/05/07 09:17:32;;;;;;;0.60;0.60;;;26.00;99.90;;;;;;4893642;29;20294;-61
2023/05/07 09:20:04;;;;;;;0.45;0.45;;;26.10;99.90;;;;;;4897491;29;20207;-61
2023/05/07 09:22:33;;;;;;;1.37;0.37;;;25.90;99.90;;;;;;4894457;29;20289;-60
2023/05/07 09:25:01;;;;;;;2.70;0.50;;;24.90;99.90;;;;;;4894988;29;20237;-60
2023/05/07 09:27:32;;;;;;;0.40;0.40;;;24.40;99.90;;;;;;4892946;29;20295;-60
2023/05/07 09:29:59;;;;;;;0.40;0.40;;;24.70;99.90;;;;;;4901246;29;20207;-60
2023/05/07 09:32:27;;;;;;;0.50;0.50;;;24.80;99.90;;;;;;4895490;29;20267;-61
2023/05/07 09:34:54;;;;;;;0.30;0.30;;;24.40;99.90;;;;;;4895047;29;20231;-60
2023/05/07 09:37:21;;;;;;;0.60;0.50;;;24.80;99.90;;;;;;4891700;29;20301;-61
2023/05/07 09:39:49;;;;;;;0.90;0.90;;;25.20;99.90;;;;;;4890940;29;20199;-61
2023/05/07 09:42:24;;;;;;;0.47;0.47;;;25.30;99.90;;;;;;4895856;29;20199;-61
2023/05/07 09:44:52;;;;;;;0.97;0.83;;;25.20;99.90;;;;;;4895940;29;20245;-61
2023/05/07 09:47:21;;;;;;;1.80;0.60;;;25.60;99.90;;;;;;4893531;29;20618;-61
2023/05/07 09:49:49;;;;;;;0.60;0.50;;;25.80;99.90;;;;;;4889278;29;20309;-61
2023/05/07 09:52:17;;;;;;;1.60;0.80;;;26.40;99.90;;;;;;4895308;29;20276;-61
2023/05/07 09:54:45;;;;;;;0.60;0.60;;;26.50;99.90;;;;;;4894855;29;20228;-61
2023/05/07 09:57:14;;;;;;;1.05;0.50;;;26.50;99.90;;;;;;4903909;29;21516;-61
2023/05/07 09:59:44;;;;;;;1.00;0.67;;;26.50;99.90;;;;;;4896251;29;20211;-61
2023/05/07 10:02:12;;;;;;;0.40;0.40;;;26.40;99.90;;;;;;4904471;29;20251;-61
2023/05/07 10:04:40;;;;;;;0.40;0.40;;;26.20;99.90;;;;;;4894646;29;20664;-61
2023/05/07 10:07:09;;;;;;;0.52;0.52;;;26.40;99.90;;;;;;4910954;29;20258;-61
2023/05/07 10:09:38;;;;;;;0.82;0.57;;;26.20;99.90;;;;;;4904130;29;20204;-61
2023/05/07 10:12:06;;;;;;;1.67;0.80;;;26.60;99.90;;;;;;4901209;29;20219;-61
2023/05/07 10:14:34;;;;;;;1.63;0.52;;;26.50;99.90;;;;;;4898142;29;20670;-61
2023/05/07 10:17:03;;;;;;;0.50;0.50;;;26.70;99.90;;;;;;4898054;29;20255;-61
2023/05/07 10:19:30;;;;;;;0.52;0.52;;;26.80;99.90;;;;;;4905129;29;20824;-61
2023/05/07 10:22:05;;;;;;;1.05;0.90;;;27.20;99.90;;;;;;4911171;29;20736;-61
2023/05/07 10:24:34;;;;;;;0.98;0.60;;;26.80;99.90;;;;;;4915555;29;20269;-61
2023/05/07 10:27:05;;;;;;;0.63;0.63;;;26.80;99.90;;;;;;4915265;29;20249;-61
2023/05/07 10:29:39;;;;;;;0.40;0.40;;;26.90;99.90;;;;;;4899349;29;20690;-61
2023/05/07 10:32:34;;;;;;;1.65;0.63;;;26.90;99.90;;;;;;4904723;29;20253;-61
2023/05/07 10:35:05;;;;;;;0.70;0.70;;;26.30;99.90;;;;;;4893563;29;20221;-61
2023/05/07 10:37:33;;;;;;;0.65;0.50;;;26.10;99.90;;;;;;4899384;29;20247;-61
2023/05/07 10:40:00;;;;;;;0.50;0.50;;;26.60;99.90;;;;;;4891754;29;20208;-61
2023/05/07 10:42:27;;;;;;;0.60;0.60;;;26.60;99.90;;;;;;4897706;29;20289;-61
2023/05/07 10:44:54;;;;;;;0.65;0.57;;;26.90;99.90;;;;;;4900237;29;20313;-61
2023/05/07 10:47:23;;;;;;;0.70;0.70;;;27.20;99.90;;;;;;4903375;29;20541;-61
2023/05/07 10:50:21;;;;;;;2.38;0.70;;;27.00;99.90;;;;;;4899824;29;20199;-60
2023/05/07 10:53:23;;;;;;;0.70;0.70;;;26.90;99.90;;;;;;4915544;29;20229;-61
2023/05/07 10:55:52;;;;;;;2.55;1.00;;;26.80;99.90;;;;;;4908699;29;20230;-61
2023/05/07 10:58:26;;;;;;;2.45;0.90;;;26.80;99.90;;;;;;4908421;29;20250;-61
2023/05/07 11:00:57;;;;;;;0.85;0.85;;;26.70;99.90;;;;;;4898010;29;20203;-60
2023/05/07 11:03:25;;;;;;;0.85;0.85;;;26.00;99.90;;;;;;4909578;29;20274;-61
2023/05/07 11:06:10;;;;;;;0.70;0.70;;;25.80;99.90;;;;;;4907882;29;20282;-61
2023/05/07 11:08:57;;;;;;;0.60;0.60;;;25.60;99.90;;;;;;4903179;29;20677;-61
2023/05/07 11:11:50;;;;;;;1.43;0.70;;;25.30;99.90;;;;;;4914870;29;20250;-61
2023/05/07 11:14:44;;;;;;;1.40;1.30;;;25.00;99.90;;;;;;4906979;29;20614;-61
2023/05/07 11:17:12;;;;;;;1.07;1.07;;;25.00;99.90;;;;;;4889556;29;20290;-60
2023/05/07 11:19:53;;;;;;;2.33;0.93;;;25.00;99.90;;;;;;4897055;29;20203;-60
2023/05/07 11:22:39;;;;;;;1.00;0.80;;;25.00;99.90;;;;;;4898028;29;20705;-60
2023/05/07 11:25:07;;;;;;;1.00;1.00;;;24.90;99.90;;;;;;4879040;29;20239;-61
2023/05/07 11:27:34;;;;;;;0.73;0.73;;;25.00;99.90;;;;;;4889678;29;20211;-61
2023/05/07 11:30:01;;;;;;;0.70;0.70;;;25.20;99.90;;;;;;4898081;29;20199;-60
2023/05/07 11:32:30;;;;;;;0.70;0.70;;;25.30;99.90;;;;;;4897642;29;20725;-60
2023/05/07 11:35:01;;;;;;;0.70;0.70;;;25.10;99.90;;;;;;4897757;29;20231;-61
2023/05/07 11:37:29;;;;;;;1.03;0.60;;;24.90;99.90;;;;;;4888571;29;20207;-60
2023/05/07 11:40:05;;;;;;;1.00;1.00;;;25.10;99.90;;;;;;4897554;29;20207;-60
2023/05/07 11:42:37;;;;;;;0.93;0.93;;;24.80;99.90;;;;;;4897779;29;20210;-61
2023/05/07 11:45:05;;;;;;;0.90;0.90;;;24.80;99.90;;;;;;4897796;29;20611;-61
2023/05/07 11:47:33;;;;;;;0.87;0.87;;;24.80;99.90;;;;;;4889053;29;20285;-61
2023/05/07 11:50:06;;;;;;;1.57;1.07;;;24.80;99.90;;;;;;4897431;29;20831;-60
2023/05/07 11:52:38;;;;;;;0.83;0.80;;;24.40;99.90;;;;;;4897166;29;20222;-61
2023/05/07 11:55:05;;;;;;;1.90;0.70;;;24.50;99.90;;;;;;4897590;29;20234;-60
2023/05/07 11:57:34;;;;;;;0.53;0.53;;;24.30;99.90;;;;;;4893062;29;20203;-60
2023/05/07 12:00:03;;;;;;;2.00;1.00;;;24.50;99.90;;;;;;4896784;29;20280;-60
2023/05/07 12:02:32;;;;;;;0.80;0.80;;;24.60;99.90;;;;;;4897155;29;20616;-60
2023/05/07 12:05:02;;;;;;;1.17;0.90;;;24.80;99.90;;;;;;4897125;29;20283;-60
2023/05/07 12:07:35;;;;;;;0.73;0.73;;;24.80;99.90;;;;;;4888300;29;20270;-61
2023/05/07 12:10:05;;;;;;;1.80;0.80;;;24.90;99.90;;;;;;4929611;23;20230;-56
2023/05/07 12:12:39;;;;;;;1.90;1.80;;;25.00;99.90;;;;;;4914990;29;20290;-54
2023/05/07 12:15:07;;;;;;;0.60;0.60;;;24.90;99.90;;;;;;4930091;29;20222;-56
2023/05/07 12:17:35;;;;;;;1.17;0.80;;;24.90;99.90;;;;;;4914579;29;20225;-55
2023/05/07 12:20:03;;;;;;;0.60;0.60;;;24.80;99.90;;;;;;4916013;29;20591;-55
2023/05/07 12:22:33;;;;;;;1.00;1.00;;;24.50;99.90;;;;;;4927502;29;20224;-56
2023/05/07 12:25:02;;;;;;;1.47;0.77;;;24.70;99.90;;;;;;4916659;29;20198;-56
2023/05/07 12:27:30;;;;;;;1.07;0.70;;;24.60;99.90;;;;;;4914570;29;20213;-56
2023/05/07 12:29:59;;;;;;;1.07;0.83;;;24.70;99.90;;;;;;4915329;29;20230;-56
2023/05/07 12:32:26;;;;;;;0.80;0.80;;;24.60;99.90;;;;;;4900690;29;20262;-56
2023/05/07 12:34:53;;;;;;;1.07;0.90;;;24.50;99.90;;;;;;4897780;29;20266;-56
2023/05/07 12:37:24;;;;;;;2.10;0.90;;;24.60;99.90;;;;;;4909252;29;20199;-54
2023/05/07 12:40:07;;;;;;;1.30;0.80;;;24.80;99.90;;;;;;4915812;29;20317;-53
2023/05/07 12:42:36;;;;;;;0.93;0.93;;;25.00;99.90;;;;;;4916012;29;20293;-53
2023/05/07 12:45:09;;;;;;;1.30;1.20;;;25.10;99.90;;;;;;4916077;29;20210;-53
2023/05/07 12:47:37;;;;;;;2.23;1.00;;;24.80;99.90;;;;;;4913302;29;20210;-54
2023/05/07 12:50:07;;;;;;;1.57;1.37;;;24.70;99.90;;;;;;4912411;29;20716;-54
2023/05/07 12:52:34;;;;;;;1.10;1.00;;;24.60;99.90;;;;;;4915869;29;20239;-54
2023/05/07 12:55:08;;;;;;;1.27;1.13;;;24.60;99.90;;;;;;4916006;29;20241;-54